Time;durP1;ratioP1;P1;durP2;ratioP2;P2;SDS_P1;SDS_P2;PMS_P1;PMS_P2;Temp;Humidity;BMP_temperature;BMP_pressure;BME280_temperature;BME280_humidity;BME280_pressure;Samples;Min_cycle;Max_cycle;Signal;HPM_P1;HPM_P2
2022/10/23 00:01:49;;;;;;;2.17;2.00;;;;;;;8.95;88.52;100039.97;5115350;28;20044;-67
2022/10/23 00:04:21;;;;;;;4.45;3.85;;;;;;;8.95;87.95;100041.69;5115393;28;20074;-67
2022/10/23 00:06:50;;;;;;;8.00;4.65;;;;;;;8.98;88.38;100036.59;5115374;28;20035;-67
2022/10/23 00:09:21;;;;;;;5.82;4.07;;;;;;;9.01;88.80;100045.13;5115241;28;20056;-66
2022/10/23 00:11:50;;;;;;;3.88;2.60;;;;;;;9.05;88.08;100046.88;5115168;28;20554;-66
2022/10/23 00:14:23;;;;;;;9.80;3.95;;;;;;;9.10;88.05;100047.78;5115405;28;20398;-66
2022/10/23 00:16:53;;;;;;;5.68;3.80;;;;;;;9.10;88.75;100045.22;5115077;28;20048;-66
2022/10/23 00:19:22;;;;;;;2.42;2.22;;;;;;;9.07;88.78;100050.28;5115069;28;20051;-67
2022/10/23 00:21:51;;;;;;;3.78;3.08;;;;;;;9.01;88.34;100046.81;5115233;27;20062;-67
2022/10/23 00:24:19;;;;;;;3.25;2.58;;;;;;;8.94;88.48;100043.38;5115082;28;20154;-67
2022/10/23 00:26:49;;;;;;;7.78;2.10;;;;;;;8.94;88.26;100058.63;5115175;28;20486;-66
2022/10/23 00:29:20;;;;;;;3.70;3.17;;;;;;;8.87;88.62;100039.03;5113980;28;20056;-67
2022/10/23 00:31:49;;;;;;;11.35;3.03;;;;;;;8.88;88.18;100058.53;5114823;28;20511;-67
2022/10/23 00:34:20;;;;;;;2.70;2.35;;;;;;;8.82;88.70;100063.56;5113884;28;20035;-66
2022/10/23 00:36:48;;;;;;;3.63;2.78;;;;;;;8.87;88.76;100064.50;5114921;28;20485;-67
2022/10/23 00:39:17;;;;;;;2.60;2.10;;;;;;;8.90;88.99;100067.06;5114688;28;20130;-67
2022/10/23 00:41:46;;;;;;;2.25;2.05;;;;;;;8.89;88.49;100069.59;5114923;28;20116;-66
2022/10/23 00:44:50;;;;;;;3.60;2.85;;;;;;;8.89;88.87;100065.34;5114532;28;20036;-66
2022/10/23 00:47:19;;;;;;;3.55;2.95;;;;;;;8.97;88.75;100060.38;5080913;28;20516;-66
2022/10/23 00:49:49;;;;;;;1.63;1.53;;;;;;;9.02;88.42;100061.28;5114777;28;20551;-66
2022/10/23 00:52:18;;;;;;;5.03;4.28;;;;;;;9.08;89.31;100068.97;5114471;28;20489;-67
2022/10/23 00:54:47;;;;;;;3.17;1.95;;;;;;;9.06;89.08;100063.88;5113224;28;20500;-66
2022/10/23 00:57:16;;;;;;;6.00;2.85;;;;;;;9.15;88.68;100066.50;5114076;28;20058;-67
2022/10/23 00:59:45;;;;;;;2.13;1.93;;;;;;;9.16;88.71;100070.78;5113185;28;20050;-66
2022/10/23 01:02:14;;;;;;;3.25;2.67;;;;;;;9.19;89.82;100080.97;5114330;28;20093;-67
2022/10/23 01:04:43;;;;;;;3.03;2.72;;;;;;;9.17;89.46;100067.38;5114510;28;20096;-67
2022/10/23 01:07:20;;;;;;;3.03;2.10;;;;;;;9.30;89.98;100076.00;5113360;28;20427;-66
2022/10/23 01:09:56;;;;;;;3.70;2.17;;;;;;;9.32;90.03;100076.88;5114245;28;20058;-67
2022/10/23 01:12:35;;;;;;;2.85;2.45;;;;;;;9.36;89.83;100079.47;5114514;28;20047;-66
2022/10/23 01:15:11;;;;;;;3.42;2.95;;;;;;;9.36;89.31;100079.47;5113028;28;20097;-66
2022/10/23 01:17:45;;;;;;;4.15;3.55;;;;;;;9.36;89.62;100079.47;5113178;28;20507;-66
2022/10/23 01:20:31;;;;;;;4.93;2.28;;;;;;;9.38;89.89;100087.97;5113211;28;20558;-66
2022/10/23 01:23:22;;;;;;;2.70;2.50;;;;;;;9.43;90.08;100095.66;5113170;28;20542;-66
2022/10/23 01:26:14;;;;;;;1.77;1.63;;;;;;;9.45;90.37;100084.66;5113145;28;20035;-67
2022/10/23 01:28:50;;;;;;;4.90;1.92;;;;;;;9.49;90.48;100089.78;5112797;28;20135;-67
2022/10/23 01:31:28;;;;;;;6.25;1.90;;;;;;;9.49;89.69;100094.88;5114329;28;20050;-67
2022/10/23 01:34:00;;;;;;;4.18;3.03;;;;;;;9.40;89.82;100099.06;5112755;28;20063;-66
2022/10/23 01:36:32;;;;;;;1.98;1.77;;;;;;;9.16;90.03;100075.88;5118378;28;20047;-67
2022/10/23 01:39:06;;;;;;;2.28;1.92;;;;;;;9.27;90.13;100084.47;5117122;28;20042;-67
2022/10/23 01:41:41;;;;;;;2.88;2.42;;;;;;;9.29;89.88;100082.78;5117012;28;20497;-66
2022/10/23 01:44:17;;;;;;;4.28;2.97;;;;;;;9.17;89.59;100069.06;5117253;28;20043;-66
2022/10/23 01:46:50;;;;;;;2.17;1.13;;;;;;;9.27;89.97;100081.94;5118100;28;20127;-66
2022/10/23 01:49:20;;;;;;;3.42;2.70;;;;;;;9.27;90.50;100076.84;5118344;28;20507;-66
2022/10/23 01:51:57;;;;;;;3.45;1.85;;;;;;;9.25;89.87;100070.88;5118311;28;20118;-66
2022/10/23 01:54:31;;;;;;;1.77;1.67;;;;;;;9.27;89.83;100074.28;5117947;28;20059;-66
2022/10/23 01:57:02;;;;;;;3.35;2.88;;;;;;;9.17;90.33;100069.06;5116491;28;20058;-66
2022/10/23 01:59:38;;;;;;;1.85;1.75;;;;;;;9.14;89.68;100071.59;5116656;28;20071;-67
2022/10/23 02:02:11;;;;;;;1.52;1.40;;;;;;;9.13;90.12;100073.28;5116594;28;20047;-66
2022/10/23 02:04:49;;;;;;;4.82;2.90;;;;;;;9.08;89.52;100071.50;5116836;28;20390;-67
2022/10/23 02:07:18;;;;;;;4.18;2.33;;;;;;;9.08;89.83;100074.06;5117639;28;20050;-66
2022/10/23 02:09:48;;;;;;;7.40;2.92;;;;;;;9.07;90.04;100075.75;5116444;28;20123;-67
2022/10/23 02:12:27;;;;;;;2.40;2.10;;;;;;;9.08;89.54;100080.00;5117849;28;20054;-66
2022/10/23 02:15:02;;;;;;;1.63;1.53;;;;;;;9.04;90.19;100079.97;5117539;28;20131;-67
2022/10/23 02:17:40;;;;;;;3.08;2.40;;;;;;;9.00;89.39;100086.69;5116522;28;20047;-67
2022/10/23 02:20:18;;;;;;;3.53;2.88;;;;;;;8.97;90.04;100081.59;5099215;28;20465;-67
2022/10/23 02:22:58;;;;;;;2.42;1.83;;;;;;;9.02;89.81;100082.47;5116424;28;20055;-67
2022/10/23 02:25:32;;;;;;;2.70;2.10;;;;;;;9.04;89.76;100088.47;5117630;28;20117;-66
2022/10/23 02:28:07;;;;;;;7.28;3.65;;;;;;;8.97;89.60;100088.38;5117304;27;20749;-66
2022/10/23 02:30:48;;;;;;;4.55;3.13;;;;;;;8.83;89.24;100094.97;5116045;28;20055;-65
2022/10/23 02:33:18;;;;;;;5.38;2.63;;;;;;;8.65;89.67;100091.34;5116007;28;20054;-66
2022/10/23 02:35:48;;;;;;;4.30;3.05;;;;;;;8.59;89.55;100085.34;5115911;28;20477;-66
2022/10/23 02:38:34;;;;;;;2.63;2.42;;;;;;;8.51;89.81;100102.16;5115834;28;20127;-66
2022/10/23 02:41:16;;;;;;;2.47;1.80;;;;;;;8.31;90.23;100101.00;5116166;28;20396;-66
2022/10/23 02:43:55;;;;;;;1.52;1.42;;;;;;;8.20;90.32;100097.44;5115812;28;20055;-66
2022/10/23 02:46:33;;;;;;;2.05;1.65;;;;;;;8.25;90.33;100104.31;5116809;28;20058;-66
2022/10/23 02:49:12;;;;;;;2.72;2.53;;;;;;;8.33;89.84;100091.72;5117418;28;20050;-66
2022/10/23 02:51:50;;;;;;;;;;;;;;;8.34;90.35;100098.53;5117246;28;20134;-66
2022/10/23 02:54:32;;;;;;;5.72;3.92;;;;;;;8.27;90.11;100096.72;5117118;28;19920;-66
2022/10/23 02:57:06;;;;;;;1.52;1.42;;;;;;;8.32;91.16;100100.19;5116620;28;20439;-66
2022/10/23 02:59:43;;;;;;;2.80;2.10;;;;;;;8.30;90.41;100087.44;5115554;28;20113;-66
2022/10/23 03:02:21;;;;;;;3.83;2.65;;;;;;;8.30;90.43;100106.94;5115435;28;20071;-66
2022/10/23 03:04:53;;;;;;;2.53;1.98;;;;;;;8.31;90.90;100106.09;5115393;28;20126;-66
2022/10/23 03:07:22;;;;;;;2.03;1.88;;;;;;;8.27;90.18;100104.34;5115595;28;20467;-66
2022/10/23 03:09:50;;;;;;;1.00;0.93;;;;;;;8.28;90.71;100108.63;5116774;28;20032;-67
2022/10/23 03:12:19;;;;;;;2.03;1.83;;;;;;;8.28;90.32;100108.63;5115186;28;20035;-67
2022/10/23 03:14:48;;;;;;;1.15;1.10;;;;;;;8.31;90.91;100111.19;5116322;28;20054;-67
2022/10/23 03:17:18;;;;;;;3.38;2.83;;;;;;;8.35;91.54;100112.97;5115000;28;20046;-67
2022/10/23 03:19:47;;;;;;;1.80;1.70;;;;;;;8.41;90.85;100115.59;5116308;28;20082;-67
2022/10/23 03:22:16;;;;;;;4.53;1.70;;;;;;;8.43;91.07;100103.75;5115339;28;20481;-67
2022/10/23 03:24:45;;;;;;;2.67;2.00;;;;;;;8.46;91.28;100108.88;5115336;28;20329;-66
2022/10/23 03:27:15;;;;;;;4.68;2.67;;;;;;;8.44;91.21;100100.38;5114936;28;20044;-66
2022/10/23 03:29:44;;;;;;;2.05;1.88;;;;;;;8.50;91.12;100100.44;5116382;28;20048;-67
2022/10/23 03:32:15;;;;;;;1.63;1.45;;;;;;;8.56;91.22;100100.56;5115124;28;20051;-66
2022/10/23 03:34:46;;;;;;;2.10;1.88;;;;;;;8.50;90.94;100097.91;5116889;28;20043;-66
2022/10/23 03:37:15;;;;;;;1.02;0.93;;;;;;;8.37;91.05;100103.66;5116286;28;20547;-66
2022/10/23 03:39:44;;;;;;;2.08;1.63;;;;;;;8.39;91.25;100102.84;5114639;28;20039;-66
2022/10/23 03:42:13;;;;;;;1.33;1.23;;;;;;;8.42;91.15;100094.41;5114675;28;20039;-67
2022/10/23 03:44:41;;;;;;;3.22;2.78;;;;;;;8.38;90.84;100095.19;5114610;28;20068;-67
2022/10/23 03:47:10;;;;;;;6.13;3.30;;;;;;;8.36;90.70;100101.94;5116309;28;20031;-66
2022/10/23 03:49:39;;;;;;;1.60;1.50;;;;;;;8.34;90.72;100095.97;5114678;28;20405;-67
2022/10/23 03:52:09;;;;;;;4.90;3.38;;;;;;;8.33;90.65;100104.44;5114739;28;20126;-66
2022/10/23 03:54:39;;;;;;;2.55;1.75;;;;;;;8.30;90.33;100101.88;5115916;28;20046;-66
2022/10/23 03:57:07;;;;;;;2.97;2.78;;;;;;;8.34;90.87;100104.47;5113705;28;20135;-67
2022/10/23 03:59:36;;;;;;;1.77;1.60;;;;;;;8.27;90.15;100105.22;5115323;28;20040;-66
2022/10/23 04:02:07;;;;;;;1.30;1.20;;;;;;;8.18;89.92;100106.72;5114280;28;20545;-67
2022/10/23 04:04:35;;;;;;;5.68;3.35;;;;;;;8.10;90.13;100110.00;5114490;28;20043;-67
2022/10/23 04:07:04;;;;;;;1.45;1.15;;;;;;;8.03;89.75;100118.38;5114163;28;20043;-67
2022/10/23 04:09:34;;;;;;;3.13;1.73;;;;;;;8.03;90.02;100114.97;5114015;28;20071;-66
2022/10/23 04:12:05;;;;;;;2.85;2.22;;;;;;;8.05;89.67;100116.69;5115567;28;20397;-66
2022/10/23 04:14:33;;;;;;;2.30;2.10;;;;;;;8.03;89.63;100118.38;5114005;28;20138;-67
2022/10/23 04:17:03;;;;;;;1.65;1.48;;;;;;;7.97;90.08;100115.72;5115177;28;20070;-66
2022/10/23 04:19:32;;;;;;;2.72;2.10;;;;;;;7.96;89.73;100111.47;5113791;28;20031;-66
2022/10/23 04:22:01;;;;;;;3.83;2.20;;;;;;;7.94;89.66;100122.44;5115013;28;20043;-67
2022/10/23 04:24:29;;;;;;;1.08;1.00;;;;;;;7.92;89.42;100119.84;5113828;28;20039;-67
2022/10/23 04:27:00;;;;;;;1.27;1.17;;;;;;;7.98;88.97;100124.19;5114945;28;20593;-67
2022/10/23 04:29:31;;;;;;;1.30;1.02;;;;;;;7.95;89.24;100125.00;5114852;28;20500;-66
2022/10/23 04:31:59;;;;;;;;;;;;;;;7.94;88.83;100128.34;5114073;28;20059;-67
2022/10/23 04:34:28;;;;;;;1.25;1.15;;;;;;;7.85;88.55;100132.44;5114800;28;19923;-66
2022/10/23 04:36:57;;;;;;;2.15;2.00;;;;;;;7.85;88.75;100138.38;5113597;28;20035;-66
2022/10/23 04:39:26;;;;;;;2.40;2.20;;;;;;;7.88;88.82;100138.44;5113567;28;20051;-66
2022/10/23 04:41:54;;;;;;;6.85;3.13;;;;;;;7.93;89.48;100141.91;5113446;28;20043;-66
2022/10/23 04:44:27;;;;;;;2.03;1.73;;;;;;;7.97;88.82;100143.66;5114631;28;20074;-66
2022/10/23 04:46:56;;;;;;;1.48;1.08;;;;;;;8.05;89.05;100147.19;5114880;28;20439;-67
2022/10/23 04:49:25;;;;;;;3.75;2.58;;;;;;;8.09;88.88;100137.94;5113395;28;20044;-67
2022/10/23 04:52:05;;;;;;;1.25;1.15;;;;;;;8.11;88.95;100142.19;5114500;27;20047;-67
2022/10/23 04:54:37;;;;;;;3.15;2.67;;;;;;;8.13;89.71;100135.44;5114799;28;20101;-66
2022/10/23 04:57:17;;;;;;;3.95;2.25;;;;;;;8.18;88.73;100127.94;5114289;28;20497;-68
2022/10/23 04:59:58;;;;;;;1.30;1.20;;;;;;;8.22;88.70;100128.81;5114647;28;20052;-66
2022/10/23 05:02:27;;;;;;;2.95;2.03;;;;;;;8.23;89.13;100130.53;5113135;28;20058;-66
2022/10/23 05:04:56;;;;;;;5.03;3.33;;;;;;;8.24;89.20;100124.59;5113400;28;20063;-66
2022/10/23 05:07:51;;;;;;;2.10;1.55;;;;;;;8.34;89.34;100129.03;5098005;28;20300;-67
2022/10/23 05:10:42;;;;;;;1.48;1.23;;;;;;;8.31;88.96;100139.16;5113473;28;20040;-66
2022/10/23 05:13:13;;;;;;;1.88;1.70;;;;;;;8.35;89.35;100125.69;5114249;28;20071;-66
2022/10/23 05:15:43;;;;;;;2.57;2.37;;;;;;;8.36;89.54;100135.00;5113244;28;20442;-66
2022/10/23 05:18:17;;;;;;;1.95;1.77;;;;;;;8.35;89.66;100130.75;5114140;28;20054;-67
2022/10/23 05:20:50;;;;;;;2.17;2.00;;;;;;;8.43;90.75;100129.16;5112890;28;20047;-67
2022/10/23 05:23:22;;;;;;;4.15;3.10;;;;;;;8.51;90.56;100132.69;5113221;28;20055;-66
2022/10/23 05:25:55;;;;;;;2.42;2.22;;;;;;;8.56;90.01;100128.53;5114081;28;20130;-67
2022/10/23 05:28:24;;;;;;;2.50;2.30;;;;;;;8.61;89.93;100132.00;5112874;28;20465;-66
2022/10/23 05:30:55;;;;;;;3.20;2.55;;;;;;;8.68;90.34;100141.44;5112826;28;20093;-66
2022/10/23 05:33:28;;;;;;;4.65;1.98;;;;;;;8.73;90.58;100139.81;5114265;28;20080;-66
2022/10/23 05:35:58;;;;;;;3.20;2.88;;;;;;;8.78;90.56;100153.47;5113098;28;20055;-66
2022/10/23 05:38:29;;;;;;;2.00;1.80;;;;;;;8.82;90.80;100154.34;5114248;28;20039;-67
2022/10/23 05:41:02;;;;;;;2.20;1.75;;;;;;;8.87;90.64;100152.72;5112736;28;20562;-67
2022/10/23 05:43:31;;;;;;;4.93;3.42;;;;;;;8.90;90.47;100151.03;5114133;28;20460;-66
2022/10/23 05:46:10;;;;;;;2.92;2.22;;;;;;;8.92;90.57;100157.03;5113888;28;20063;-66
2022/10/23 05:49:05;;;;;;;1.98;1.77;;;;;;;8.98;91.19;100162.19;5111592;28;20050;-66
2022/10/23 05:51:50;;;;;;;4.03;3.65;;;;;;;9.02;91.02;100161.41;5113871;28;20056;-67
2022/10/23 05:54:41;;;;;;;2.30;2.10;;;;;;;9.01;90.86;100157.16;5113794;28;20385;-66
2022/10/23 05:57:36;;;;;;;2.25;2.05;;;;;;;8.95;90.92;100162.16;5111238;28;20048;-66
2022/10/23 06:00:09;;;;;;;7.07;3.58;;;;;;;8.87;90.58;100167.97;5113992;28;20071;-66
2022/10/23 06:02:42;;;;;;;1.98;1.83;;;;;;;8.85;91.11;100165.44;5113652;28;20067;-67
2022/10/23 06:05:25;;;;;;;2.35;2.15;;;;;;;8.84;91.02;100165.38;5114020;28;20138;-66
2022/10/23 06:08:05;;;;;;;1.58;1.48;;;;;;;8.79;91.16;100162.78;5114035;28;20044;-66
2022/10/23 06:10:35;;;;;;;2.00;1.90;;;;;;;8.86;90.51;100171.34;5112447;28;20122;-66
2022/10/23 06:13:07;;;;;;;1.27;1.00;;;;;;;8.85;90.26;100170.53;5113848;28;20093;-66
2022/10/23 06:15:37;;;;;;;2.55;2.35;;;;;;;8.84;90.78;100171.34;5113846;28;20044;-66
2022/10/23 06:18:12;;;;;;;2.60;2.03;;;;;;;8.88;90.48;100169.72;5113543;28;20134;-66
2022/10/23 06:20:53;;;;;;;3.90;2.92;;;;;;;8.91;91.02;100180.78;5111874;28;20052;-66
2022/10/23 06:23:26;;;;;;;1.73;1.63;;;;;;;8.88;90.41;100175.63;5115803;28;20036;-66
2022/10/23 06:26:08;;;;;;;1.40;1.25;;;;;;;8.84;90.67;100184.06;5117175;27;20126;-66
2022/10/23 06:28:48;;;;;;;1.45;1.35;;;;;;;8.85;91.22;100183.25;5117189;28;20048;-66
2022/10/23 06:31:20;;;;;;;2.03;1.65;;;;;;;8.82;90.92;100170.47;5115996;28;20043;-67
2022/10/23 06:33:52;;;;;;;2.00;1.83;;;;;;;8.83;90.72;100179.78;5117437;28;20063;-66
2022/10/23 06:36:21;;;;;;;1.70;1.60;;;;;;;8.86;90.86;100182.41;5115919;28;20086;-66
2022/10/23 06:38:51;;;;;;;3.22;2.83;;;;;;;8.89;91.76;100182.44;5116974;28;20105;-66
2022/10/23 06:41:23;;;;;;;2.47;2.28;;;;;;;8.93;91.48;100178.22;5115788;28;20100;-66
2022/10/23 06:43:56;;;;;;;3.08;2.13;;;;;;;8.98;91.94;100182.56;5117219;28;20134;-67
2022/10/23 06:46:45;;;;;;;1.20;1.10;;;;;;;9.01;91.69;100186.84;5115804;28;20142;-66
2022/10/23 06:49:36;;;;;;;1.75;1.65;;;;;;;9.09;91.79;100196.31;5109099;28;20447;-67
2022/10/23 06:52:06;;;;;;;3.33;3.03;;;;;;;9.17;92.17;100204.03;5117029;28;20043;-65
2022/10/23 06:54:51;;;;;;;1.45;1.35;;;;;;;9.24;91.72;100196.50;5115496;28;20370;-66
2022/10/23 06:57:25;;;;;;;0.80;0.80;;;;;;;9.29;92.04;100194.00;5114409;28;20089;-66
2022/10/23 06:59:54;;;;;;;;;;;;;;;9.33;92.40;100191.50;5115163;28;20074;-66
2022/10/23 07:02:24;;;;;;;3.30;2.10;;;;;;;9.40;92.97;100190.78;5115540;28;19920;-66
2022/10/23 07:04:54;;;;;;;1.25;0.95;;;;;;;9.46;93.02;100187.41;5116260;28;20071;-66
2022/10/23 07:07:24;;;;;;;1.90;1.70;;;;;;;9.55;92.98;100186.69;5115250;28;20466;-66
2022/10/23 07:09:54;;;;;;;3.20;1.80;;;;;;;9.65;92.62;100189.34;5115264;28;20044;-66
2022/10/23 07:12:22;;;;;;;3.70;2.95;;;;;;;9.71;92.71;100193.66;5116279;28;20063;-66
2022/10/23 07:15:11;;;;;;;1.92;1.75;;;;;;;9.76;93.01;100192.03;5116551;28;20096;-66
2022/10/23 07:17:40;;;;;;;2.95;2.65;;;;;;;9.85;93.25;100197.22;5114845;28;20044;-66
2022/10/23 07:20:11;;;;;;;5.40;3.53;;;;;;;9.94;93.67;100202.41;5115816;28;20463;-66
2022/10/23 07:22:40;;;;;;;2.88;2.63;;;;;;;10.03;93.88;100197.38;5116608;28;20423;-66
2022/10/23 07:25:14;;;;;;;2.03;1.77;;;;;;;10.11;93.40;100203.41;5115949;28;20047;-65
2022/10/23 07:27:42;;;;;;;2.10;2.00;;;;;;;10.18;93.84;100197.56;5114690;28;20067;-66
2022/10/23 07:30:13;;;;;;;3.05;2.50;;;;;;;10.23;93.97;100195.91;5114884;28;20051;-68
2022/10/23 07:32:47;;;;;;;2.97;2.58;;;;;;;10.26;94.11;100198.50;5113529;28;20047;-66
2022/10/23 07:35:28;;;;;;;6.70;4.10;;;;;;;10.30;94.06;100197.66;5114651;28;20051;-66
2022/10/23 07:38:08;;;;;;;1.73;1.60;;;;;;;10.36;94.40;100213.06;5115713;28;20046;-67
2022/10/23 07:40:41;;;;;;;1.75;1.63;;;;;;;10.38;94.76;100201.16;5114725;28;20043;-66
2022/10/23 07:43:11;;;;;;;;;;;;;;;10.45;94.41;100213.13;5114928;28;20035;-65
2022/10/23 07:45:40;;;;;;;2.50;1.90;;;;;;;10.50;94.39;100203.81;5114941;28;20400;-66
2022/10/23 07:48:26;;;;;;;2.53;2.30;;;;;;;10.58;95.13;100204.69;5115332;28;20043;-66
2022/10/23 07:51:09;;;;;;;2.88;2.58;;;;;;;10.66;95.10;100192.88;5115289;28;20062;-66
2022/10/23 07:53:52;;;;;;;3.08;2.83;;;;;;;10.75;95.15;100186.94;5115323;28;20047;-66
2022/10/23 07:56:32;;;;;;;6.75;5.72;;;;;;;10.84;95.25;100191.28;5115355;28;20489;-66
2022/10/23 07:59:14;;;;;;;2.70;2.30;;;;;;;10.87;95.30;100191.31;5114512;28;20051;-66
2022/10/23 08:01:50;;;;;;;4.30;2.85;;;;;;;10.90;95.26;100201.53;5114879;28;20058;-67
2022/10/23 08:04:27;;;;;;;5.53;4.13;;;;;;;11.01;95.37;100199.91;5113687;28;20105;-65
2022/10/23 08:07:03;;;;;;;5.20;2.58;;;;;;;11.06;95.43;100204.16;5113911;28;20413;-66
2022/10/23 08:09:38;;;;;;;6.35;4.15;;;;;;;11.08;95.37;100206.75;5114237;28;20060;-66
2022/10/23 08:12:09;;;;;;;2.83;2.50;;;;;;;11.11;95.69;100201.66;5115555;28;20043;-66
2022/10/23 08:14:38;;;;;;;3.72;3.38;;;;;;;11.16;95.69;100208.50;5112546;28;20032;-67
2022/10/23 08:17:08;;;;;;;3.95;3.10;;;;;;;11.19;95.63;100194.88;5114815;28;20051;-66
2022/10/23 08:19:57;;;;;;;8.25;3.65;;;;;;;11.27;95.68;100193.22;5115164;28;20043;-67
2022/10/23 08:22:33;;;;;;;5.43;3.33;;;;;;;11.33;95.81;100193.25;5115194;28;20397;-67
2022/10/23 08:25:03;;;;;;;3.28;2.28;;;;;;;11.43;95.72;100195.00;5115289;28;20087;-68
2022/10/23 08:27:32;;;;;;;3.17;2.37;;;;;;;11.47;95.78;100189.03;5114022;28;20489;-66
2022/10/23 08:30:01;;;;;;;2.60;2.40;;;;;;;11.51;95.85;100188.22;5113650;28;20116;-67
2022/10/23 08:32:30;;;;;;;2.70;2.35;;;;;;;11.55;95.70;100189.06;5114887;28;20121;-67
2022/10/23 08:35:00;;;;;;;4.15;3.75;;;;;;;11.55;95.81;100192.47;5115187;28;20055;-67
2022/10/23 08:37:33;;;;;;;2.78;2.58;;;;;;;11.60;95.88;100193.34;5114902;28;20031;-65
2022/10/23 08:40:02;;;;;;;5.30;2.90;;;;;;;11.70;95.73;100199.38;5113424;28;20044;-69
2022/10/23 08:42:43;;;;;;;1.73;1.63;;;;;;;11.76;95.70;100199.38;5113653;28;20047;-68
2022/10/23 08:45:28;;;;;;;6.97;2.90;;;;;;;11.88;96.03;100197.72;5114651;28;20073;-67
2022/10/23 08:48:16;;;;;;;2.72;2.53;;;;;;;11.99;95.76;100203.72;5113561;28;20485;-68
2022/10/23 08:50:58;;;;;;;;;;;;;;;12.03;95.59;100210.56;5115176;28;20055;-67
2022/10/23 08:53:36;;;;;;;4.40;4.00;;;;;;;12.07;95.61;100201.16;5114480;28;20319;-67
2022/10/23 08:56:12;;;;;;;5.43;2.42;;;;;;;12.14;95.63;100191.81;5114096;28;20485;-68
2022/10/23 08:58:47;;;;;;;4.32;2.70;;;;;;;12.26;95.50;100196.94;5114282;28;20048;-68
2022/10/23 09:01:30;;;;;;;2.25;2.05;;;;;;;12.36;95.59;100188.38;5114575;28;20046;-67
2022/10/23 09:04:00;;;;;;;3.90;2.85;;;;;;;12.41;95.08;100181.56;5114505;28;20511;-68
2022/10/23 09:06:36;;;;;;;4.85;3.35;;;;;;;12.47;95.33;100190.13;5114157;27;20039;-68
2022/10/23 09:09:30;;;;;;;3.58;3.10;;;;;;;12.54;95.02;100183.28;5114295;28;20493;-67
2022/10/23 09:12:05;;;;;;;3.35;2.95;;;;;;;12.69;95.07;100188.41;5114669;28;20423;-67
2022/10/23 09:15:03;;;;;;;2.65;2.45;;;;;;;12.93;94.88;100188.38;5114501;28;20043;-68
2022/10/23 09:17:33;;;;;;;3.40;2.63;;;;;;;13.07;95.17;100181.53;5103189;28;20396;-72
2022/10/23 09:20:13;;;;;;;3.05;2.63;;;;;;;13.17;94.48;100190.88;5113747;28;20047;-67
2022/10/23 09:22:43;;;;;;;2.55;2.33;;;;;;;13.25;94.35;100191.72;5113635;28;20040;-68
2022/10/23 09:25:20;;;;;;;3.92;3.28;;;;;;;13.29;94.42;100195.13;5112554;28;20131;-68
2022/10/23 09:27:51;;;;;;;6.05;2.45;;;;;;;13.36;94.13;100186.56;5113979;28;20056;-68
2022/10/23 09:30:32;;;;;;;2.80;2.58;;;;;;;13.40;93.81;100186.53;5114057;28;20047;-67
2022/10/23 09:33:13;;;;;;;6.13;3.05;;;;;;;13.44;93.67;100185.66;5113919;28;20058;-67
2022/10/23 09:35:54;;;;;;;3.83;2.83;;;;;;;13.59;93.67;100181.31;5113970;28;20055;-67
2022/10/23 09:38:30;;;;;;;4.60;3.22;;;;;;;13.78;93.14;100183.78;5113125;28;20089;-68
2022/10/23 09:41:03;;;;;;;6.82;3.83;;;;;;;13.93;92.51;100172.56;5110760;28;20135;-67
2022/10/23 09:43:32;;;;;;;6.35;3.65;;;;;;;13.98;92.48;100187.09;5113621;28;20139;-67
2022/10/23 09:46:05;;;;;;;3.33;2.97;;;;;;;14.00;92.25;100185.34;5114070;28;20483;-67
2022/10/23 09:48:36;;;;;;;5.65;3.53;;;;;;;14.02;91.58;100188.75;5113732;28;20058;-67
2022/10/23 09:51:17;;;;;;;2.10;1.90;;;;;;;14.02;91.25;100193.03;5113658;28;20051;-67
2022/10/23 09:53:52;;;;;;;4.45;3.22;;;;;;;13.99;90.83;100198.19;5112598;28;20047;-67
2022/10/23 09:56:28;;;;;;;3.47;2.58;;;;;;;13.96;90.79;100188.78;5115594;28;20519;-67
2022/10/23 09:58:59;;;;;;;4.60;2.67;;;;;;;13.96;90.32;100187.94;5118138;28;20490;-68
2022/10/23 10:01:31;;;;;;;3.80;2.22;;;;;;;13.91;89.89;100190.56;5117991;28;20063;-67
2022/10/23 10:04:30;;;;;;;3.35;2.08;;;;;;;13.92;89.70;100194.81;5117772;28;20122;-68
2022/10/23 10:07:02;;;;;;;;;;;;;;;13.96;89.58;100187.94;5118602;28;20031;-67
2022/10/23 10:09:30;;;;;;;4.93;2.65;;;;;;;14.01;89.49;100183.66;5117679;28;19926;-68
2022/10/23 10:12:19;;;;;;;5.05;2.30;;;;;;;14.06;89.34;100181.88;5117864;28;20040;-68
2022/10/23 10:15:01;;;;;;;3.33;3.03;;;;;;;14.11;89.52;100185.25;5117579;28;20051;-69
2022/10/23 10:17:39;;;;;;;7.82;3.55;;;;;;;14.18;89.10;100189.50;5117930;28;20062;-68
2022/10/23 10:20:40;;;;;;;3.13;2.83;;;;;;;14.24;88.91;100189.47;5117421;28;20073;-68
2022/10/23 10:23:18;;;;;;;3.33;2.97;;;;;;;14.30;88.32;100178.31;5117362;28;20160;-69
2022/10/23 10:25:57;;;;;;;3.15;2.65;;;;;;;14.36;87.94;100174.00;5117227;28;20043;-68
2022/10/23 10:28:41;;;;;;;3.60;3.28;;;;;;;14.40;87.76;100165.38;5117512;28;20043;-68
2022/10/23 10:31:19;;;;;;;2.25;1.67;;;;;;;14.47;87.88;100163.59;5117265;28;20051;-69
2022/10/23 10:34:00;;;;;;;3.38;3.00;;;;;;;14.49;87.44;100157.59;5117302;28;20048;-68
2022/10/23 10:36:41;;;;;;;2.97;2.67;;;;;;;14.50;87.22;100143.91;5114602;28;20051;-68
2022/10/23 10:39:20;;;;;;;3.13;1.73;;;;;;;14.68;86.63;100142.88;5117384;28;20439;-67
2022/10/23 10:42:00;;;;;;;1.88;1.60;;;;;;;14.96;86.28;100135.72;5116717;28;20043;-68
2022/10/23 10:44:53;;;;;;;1.95;1.70;;;;;;;15.32;85.75;100130.16;5117227;28;20509;-68
2022/10/23 10:47:25;;;;;;;1.02;0.98;;;;;;;15.49;84.70;100137.66;5117086;28;20040;-66
2022/10/23 10:50:06;;;;;;;2.55;2.05;;;;;;;15.64;83.51;100132.31;5116775;28;20100;-67
2022/10/23 10:53:00;;;;;;;2.72;2.42;;;;;;;15.85;82.87;100120.00;5115153;28;20116;-68
2022/10/23 10:55:35;;;;;;;3.42;1.95;;;;;;;16.02;82.11;100115.44;5116545;28;20058;-68
2022/10/23 10:58:11;;;;;;;5.43;2.22;;;;;;;16.08;80.87;100109.31;5116287;27;20093;-68
2022/10/23 11:00:43;;;;;;;6.63;2.10;;;;;;;16.19;80.61;100106.59;5116740;28;20047;-68
2022/10/23 11:03:28;;;;;;;2.95;2.47;;;;;;;16.21;80.18;100102.25;5116409;28;20039;-68
2022/10/23 11:05:59;;;;;;;6.95;2.22;;;;;;;16.12;79.64;100092.13;5116368;28;20055;-68
2022/10/23 11:08:35;;;;;;;3.53;2.55;;;;;;;16.20;79.96;100092.81;5114819;28;20080;-68
2022/10/23 11:11:30;;;;;;;2.10;1.75;;;;;;;16.29;79.49;100082.38;5116542;28;20044;-68
2022/10/23 11:13:59;;;;;;;1.73;1.35;;;;;;;16.39;79.12;100078.72;5116203;28;20105;-68
2022/10/23 11:16:34;;;;;;;3.43;3.00;;;;;;;16.47;78.80;100087.19;5116504;27;20043;-68
2022/10/23 11:19:07;;;;;;;2.22;1.80;;;;;;;16.51;78.30;100073.38;5116129;28;20055;-68
2022/10/23 11:21:47;;;;;;;3.70;1.85;;;;;;;16.71;78.11;100071.31;5116272;28;20039;-68
2022/10/23 11:24:38;;;;;;;1.88;1.77;;;;;;;16.78;77.51;100072.88;5116056;28;20044;-68
2022/10/23 11:27:37;;;;;;;1.80;1.30;;;;;;;17.05;77.26;100077.50;5116320;28;20150;-68
2022/10/23 11:30:19;;;;;;;5.47;2.35;;;;;;;17.17;76.67;100072.09;5115486;28;20056;-68
2022/10/23 11:33:30;;;;;;;2.50;1.70;;;;;;;17.28;75.89;100070.09;5116104;28;20054;-67
2022/10/23 11:36:12;;;;;;;2.15;1.92;;;;;;;17.18;75.32;100063.44;5115738;28;20431;-67
2022/10/23 11:38:45;;;;;;;2.58;1.98;;;;;;;17.15;74.52;100058.38;5114386;28;20480;-68
2022/10/23 11:41:20;;;;;;;3.03;2.45;;;;;;;17.13;74.82;100054.94;5115796;28;20044;-68
2022/10/23 11:44:00;;;;;;;5.15;3.00;;;;;;;17.28;74.40;100052.03;5114091;28;20128;-68
2022/10/23 11:46:32;;;;;;;2.55;1.55;;;;;;;17.38;73.87;100039.78;5115699;27;20040;-67
2022/10/23 11:49:04;;;;;;;2.03;1.73;;;;;;;17.50;73.73;100033.50;5115055;28;20043;-68
2022/10/23 11:51:35;;;;;;;1.77;1.38;;;;;;;17.58;73.25;100026.47;5115849;28;20051;-68
2022/10/23 11:54:25;;;;;;;2.03;1.60;;;;;;;17.65;73.06;100025.44;5115831;28;20048;-68
2022/10/23 11:57:10;;;;;;;3.13;2.05;;;;;;;17.72;72.72;100008.91;5115226;28;20051;-68
2022/10/23 11:59:52;;;;;;;1.65;1.55;;;;;;;17.73;72.62;99998.53;5115197;28;20036;-68
2022/10/23 12:02:31;;;;;;;5.32;2.20;;;;;;;17.84;72.57;99993.13;5115491;28;20490;-67
2022/10/23 12:05:06;;;;;;;1.95;1.17;;;;;;;17.84;72.31;99990.53;5115710;28;20047;-68
2022/10/23 12:07:38;;;;;;;1.80;1.45;;;;;;;17.84;72.25;99983.63;5115269;28;20074;-68
2022/10/23 12:10:19;;;;;;;2.15;1.80;;;;;;;17.79;72.18;99979.47;5115141;28;20493;-68